createdAt,value
2018-08-12T00:00:19.559Z,16.80
2018-08-12T00:02:49.109Z,16.80
2018-08-12T00:05:18.753Z,16.80
2018-08-12T00:07:48.271Z,16.90
2018-08-12T00:10:17.828Z,16.80
2018-08-12T00:12:47.331Z,16.70
2018-08-12T00:15:18.488Z,16.60
2018-08-12T00:17:48.166Z,16.50
2018-08-12T00:20:20.466Z,16.40
2018-08-12T00:22:50.116Z,16.20
2018-08-12T00:25:21.335Z,16.10
2018-08-12T00:27:51.125Z,16.00
2018-08-12T00:30:20.874Z,16.10
2018-08-12T00:32:50.511Z,16.10
2018-08-12T00:35:20.287Z,16.00
2018-08-12T00:37:49.761Z,16.00
2018-08-12T00:40:19.243Z,15.90
2018-08-12T00:42:48.791Z,16.00
2018-08-12T00:45:19.573Z,16.00
2018-08-12T00:47:49.537Z,15.90
2018-08-12T00:50:19.653Z,15.90
2018-08-12T00:52:49.505Z,15.80
2018-08-12T00:55:19.050Z,15.70
2018-08-12T00:57:49.000Z,15.70
2018-08-12T01:00:20.232Z,15.60
2018-08-12T01:02:49.670Z,15.60
2018-08-12T01:05:19.757Z,15.60
2018-08-12T01:07:50.189Z,15.50
2018-08-12T01:10:20.249Z,15.40
2018-08-12T01:12:50.079Z,15.30
2018-08-12T01:15:20.643Z,15.20
2018-08-12T01:17:49.746Z,15.20
2018-08-12T01:20:21.947Z,15.10
2018-08-12T01:22:51.513Z,15.10
2018-08-12T01:25:21.653Z,15.00
2018-08-12T01:27:51.177Z,15.10
2018-08-12T01:30:22.035Z,14.90
2018-08-12T01:32:51.808Z,14.80
2018-08-12T01:35:20.829Z,14.90
2018-08-12T01:37:50.399Z,14.90
2018-08-12T01:40:20.580Z,15.00
2018-08-12T01:42:50.065Z,15.00
2018-08-12T01:45:20.510Z,15.10
2018-08-12T01:47:50.361Z,15.00
2018-08-12T01:50:20.451Z,15.00
2018-08-12T01:52:49.932Z,15.00
2018-08-12T01:55:20.084Z,14.90
2018-08-12T01:57:49.534Z,14.90
2018-08-12T02:00:20.552Z,14.80
2018-08-12T02:02:50.705Z,14.80
2018-08-12T02:05:20.216Z,14.80
2018-08-12T02:07:49.657Z,14.70
2018-08-12T02:10:19.160Z,14.70
2018-08-12T02:12:48.647Z,14.80
2018-08-12T02:15:18.063Z,14.80
2018-08-12T02:17:47.828Z,14.60
2018-08-12T02:20:17.590Z,14.60
2018-08-12T02:22:47.026Z,14.60
2018-08-12T02:25:16.426Z,14.60
2018-08-12T02:27:46.326Z,14.60
2018-08-12T02:30:15.727Z,14.40
2018-08-12T02:32:45.184Z,14.30
2018-08-12T02:35:14.681Z,14.40
2018-08-12T02:37:44.279Z,14.40
2018-08-12T02:40:14.099Z,14.40
2018-08-12T02:42:43.961Z,14.40
2018-08-12T02:45:15.802Z,14.40
2018-08-12T02:47:45.610Z,14.40
2018-08-12T02:50:15.431Z,14.40
2018-08-12T02:52:45.204Z,14.50
2018-08-12T02:55:15.067Z,14.50
2018-08-12T02:57:44.558Z,14.50
2018-08-12T03:00:14.457Z,14.50
2018-08-12T03:02:43.944Z,14.50
2018-08-12T03:05:13.405Z,14.50
2018-08-12T03:07:42.808Z,14.40
2018-08-12T03:10:12.349Z,14.40
2018-08-12T03:12:41.766Z,14.40
2018-08-12T03:15:11.480Z,14.30
2018-08-12T03:17:40.884Z,14.30
2018-08-12T03:20:11.715Z,14.20
2018-08-12T03:22:41.178Z,14.20
2018-08-12T03:25:11.623Z,14.10
2018-08-12T03:27:41.051Z,14.00
2018-08-12T03:30:11.479Z,14.00
2018-08-12T03:32:41.381Z,13.90
2018-08-12T03:35:10.894Z,13.80
2018-08-12T03:37:40.342Z,13.60
2018-08-12T03:40:11.724Z,13.50
2018-08-12T03:42:41.217Z,13.50
2018-08-12T03:45:10.904Z,13.60
2018-08-12T03:47:40.379Z,13.60
2018-08-12T03:50:10.992Z,13.60
2018-08-12T03:52:40.754Z,13.60
2018-08-12T03:55:10.225Z,13.60
2018-08-12T03:57:40.003Z,13.70
2018-08-12T04:00:15.473Z,13.80
2018-08-12T04:02:45.972Z,13.80
2018-08-12T04:05:15.682Z,13.80
2018-08-12T04:07:45.134Z,13.80
2018-08-12T04:10:14.592Z,13.60
2018-08-12T04:12:44.082Z,13.50
2018-08-12T04:15:13.879Z,13.40
2018-08-12T04:17:43.292Z,13.40
2018-08-12T04:20:12.748Z,13.40
2018-08-12T04:22:42.192Z,13.40
2018-08-12T04:25:11.960Z,13.30
2018-08-12T04:27:41.710Z,13.40
2018-08-12T04:30:11.517Z,13.30
2018-08-12T04:32:41.019Z,13.30
2018-08-12T04:35:10.416Z,13.40
2018-08-12T04:37:40.189Z,13.40
2018-08-12T04:40:09.652Z,13.40
2018-08-12T04:42:39.081Z,13.40
2018-08-12T04:45:08.562Z,13.40
2018-08-12T04:47:38.560Z,13.40
2018-08-12T04:50:09.005Z,13.40
2018-08-12T04:52:38.462Z,13.40
2018-08-12T04:55:08.416Z,13.50
2018-08-12T04:57:38.235Z,13.60
2018-08-12T05:00:08.529Z,13.60
2018-08-12T05:02:38.706Z,13.70
2018-08-12T05:05:08.996Z,13.70
2018-08-12T05:07:38.463Z,13.80
2018-08-12T05:10:08.329Z,13.80
2018-08-12T05:12:37.863Z,13.70
2018-08-12T05:15:08.460Z,13.70
2018-08-12T05:17:38.550Z,13.70
2018-08-12T05:20:08.525Z,13.80
2018-08-12T05:22:38.361Z,13.80
2018-08-12T05:25:08.488Z,14.00
2018-08-12T05:27:37.926Z,14.10
2018-08-12T05:30:08.689Z,14.20
2018-08-12T05:32:38.541Z,14.20
2018-08-12T05:35:10.242Z,14.30
2018-08-12T05:37:39.653Z,14.30
2018-08-12T05:40:11.001Z,14.40
2018-08-12T05:42:40.491Z,14.50
2018-08-12T05:45:10.929Z,14.50
2018-08-12T05:47:41.586Z,14.50
2018-08-12T05:50:11.659Z,14.50
2018-08-12T05:52:41.510Z,14.70
2018-08-12T05:55:11.037Z,14.80
2018-08-12T05:57:40.545Z,14.90
2018-08-12T06:00:12.321Z,15.00
2018-08-12T06:02:41.978Z,14.90
2018-08-12T06:05:11.901Z,14.90
2018-08-12T06:07:41.413Z,15.00
2018-08-12T06:10:12.505Z,15.10
2018-08-12T06:12:41.961Z,15.30
2018-08-12T06:15:15.294Z,15.40
2018-08-12T06:17:45.310Z,15.60
2018-08-12T06:20:15.507Z,15.70
2018-08-12T06:22:44.971Z,15.80
2018-08-12T06:25:14.557Z,15.80
2018-08-12T06:27:44.098Z,15.80
2018-08-12T06:30:14.801Z,15.80
2018-08-12T06:32:44.268Z,15.80
2018-08-12T06:35:14.090Z,15.80
2018-08-12T06:37:43.623Z,15.90
2018-08-12T06:40:14.137Z,15.90
2018-08-12T06:42:45.102Z,15.90
2018-08-12T06:45:16.225Z,15.90
2018-08-12T06:47:46.818Z,16.00
2018-08-12T06:50:16.292Z,16.10
2018-08-12T06:52:46.035Z,16.00
2018-08-12T06:55:15.819Z,16.10
2018-08-12T06:57:45.316Z,16.20
2018-08-12T07:00:16.767Z,16.40
2018-08-12T07:02:46.292Z,16.50
2018-08-12T07:05:15.673Z,16.60
2018-08-12T07:07:52.565Z,16.60
2018-08-12T07:10:21.994Z,16.70
2018-08-12T07:12:51.416Z,16.80
2018-08-12T07:15:20.846Z,16.80
2018-08-12T07:17:50.265Z,16.90
2018-08-12T07:20:19.728Z,16.90
2018-08-12T07:22:49.172Z,17.00
2018-08-12T07:25:18.591Z,17.00
2018-08-12T07:27:48.149Z,17.00
2018-08-12T07:30:18.108Z,17.10
2018-08-12T07:32:47.778Z,17.30
2018-08-12T07:35:17.582Z,17.50
2018-08-12T07:37:48.950Z,17.70
2018-08-12T07:40:20.631Z,17.80
2018-08-12T07:42:51.149Z,17.90
2018-08-12T07:45:21.493Z,18.10
2018-08-12T07:47:50.924Z,18.20
2018-08-12T07:50:20.400Z,18.40
2018-08-12T07:52:49.869Z,18.40
2018-08-12T07:55:19.708Z,18.50
2018-08-12T07:57:58.048Z,18.50
2018-08-12T08:00:28.219Z,18.60
2018-08-12T08:02:59.434Z,18.70
2018-08-12T08:05:28.841Z,18.80
2018-08-12T08:07:58.270Z,18.90
2018-08-12T08:10:32.269Z,19.00
2018-08-12T08:13:02.676Z,19.10
2018-08-12T08:15:32.470Z,19.20
2018-08-12T08:18:02.309Z,19.40
2018-08-12T08:20:31.780Z,19.60
2018-08-12T08:23:01.667Z,19.80
2018-08-12T08:25:31.361Z,19.90
2018-08-12T08:28:00.925Z,20.00
2018-08-12T08:30:30.463Z,20.20
2018-08-12T08:33:05.093Z,20.30
2018-08-12T08:35:35.024Z,20.40
2018-08-12T08:38:04.586Z,20.60
2018-08-12T08:40:37.105Z,20.70
2018-08-12T08:43:06.937Z,20.70
2018-08-12T08:45:39.125Z,20.80
2018-08-12T08:48:09.117Z,21.00
2018-08-12T08:50:38.656Z,21.20
2018-08-12T08:53:08.652Z,21.40
2018-08-12T08:55:38.220Z,21.40
2018-08-12T08:58:08.169Z,21.60
2018-08-12T09:00:37.680Z,21.70
2018-08-12T09:03:07.212Z,21.70
2018-08-12T09:05:36.676Z,21.80
2018-08-12T09:08:06.378Z,22.00
2018-08-12T09:10:36.080Z,22.20
2018-08-12T09:13:05.988Z,22.30
2018-08-12T09:15:35.471Z,22.30
2018-08-12T09:18:05.402Z,22.50
2018-08-12T09:20:36.016Z,22.60
2018-08-12T09:23:06.085Z,22.60
2018-08-12T09:25:35.609Z,22.60
2018-08-12T09:28:05.238Z,22.60
2018-08-12T09:30:35.214Z,22.70
2018-08-12T09:33:04.704Z,22.90
2018-08-12T09:35:34.463Z,23.00
2018-08-12T09:38:04.456Z,23.20
2018-08-12T09:40:34.255Z,23.40
2018-08-12T09:43:03.746Z,23.50
2018-08-12T09:45:33.449Z,23.60
2018-08-12T09:48:02.786Z,23.50
2018-08-12T09:50:32.244Z,23.50
2018-08-12T09:53:02.662Z,23.80
2018-08-12T09:55:32.123Z,24.00
2018-08-12T09:58:01.607Z,24.30
2018-08-12T10:00:36.854Z,24.30
2018-08-12T10:03:06.965Z,24.50
2018-08-12T10:05:36.637Z,24.60
2018-08-12T10:08:06.248Z,24.60
2018-08-12T10:10:37.249Z,24.70
2018-08-12T10:13:06.786Z,24.80
2018-08-12T10:15:36.551Z,24.80
2018-08-12T10:18:06.479Z,24.90
2018-08-12T10:20:36.089Z,25.00
2018-08-12T10:23:05.617Z,25.00
2018-08-12T10:25:35.824Z,25.20
2018-08-12T10:28:05.554Z,25.20
2018-08-12T10:30:34.977Z,25.40
2018-08-12T10:33:04.813Z,25.60
2018-08-12T10:35:34.275Z,25.80
2018-08-12T10:38:06.851Z,26.10
2018-08-12T10:40:36.331Z,26.00
2018-08-12T10:43:05.790Z,26.10
2018-08-12T10:45:35.692Z,26.20
2018-08-12T10:48:07.739Z,26.20
2018-08-12T10:50:37.401Z,26.30
2018-08-12T10:53:07.529Z,26.50
2018-08-12T10:55:37.457Z,26.70
2018-08-12T10:58:07.366Z,26.80
2018-08-12T11:00:43.778Z,26.90
2018-08-12T11:03:13.645Z,27.20
2018-08-12T11:05:43.158Z,27.20
2018-08-12T11:08:12.961Z,27.40
2018-08-12T11:10:42.534Z,27.60
2018-08-12T11:13:12.168Z,27.90
2018-08-12T11:15:41.671Z,28.20
2018-08-12T11:18:11.120Z,28.30
2018-08-12T11:20:41.365Z,29.20
2018-08-12T11:23:11.417Z,30.80
2018-08-12T11:25:41.397Z,32.50
2018-08-12T11:28:11.725Z,34.00
2018-08-12T11:30:41.673Z,35.00
2018-08-12T11:33:12.056Z,35.20
2018-08-12T11:35:42.099Z,35.80
2018-08-12T11:38:12.473Z,36.60
2018-08-12T11:40:42.498Z,37.00
2018-08-12T11:43:12.890Z,37.30
2018-08-12T11:45:42.907Z,37.70
2018-08-12T11:48:12.912Z,37.70
2018-08-12T11:50:42.949Z,37.70
2018-08-12T11:53:13.348Z,38.00
2018-08-12T11:55:43.367Z,38.80
2018-08-12T11:58:13.408Z,39.20
2018-08-12T12:00:43.860Z,38.60
2018-08-12T12:03:13.882Z,38.90
2018-08-12T12:05:44.232Z,38.70
2018-08-12T12:08:14.631Z,38.10
2018-08-12T12:10:44.841Z,38.00
2018-08-12T12:13:14.874Z,39.00
2018-08-12T12:15:44.876Z,39.80
2018-08-12T12:18:14.900Z,39.30
2018-08-12T12:20:44.896Z,38.40
2018-08-12T12:23:15.353Z,38.80
2018-08-12T12:25:45.432Z,39.50
2018-08-12T12:28:15.824Z,40.00
2018-08-12T12:30:47.232Z,39.70
2018-08-12T12:33:17.319Z,39.00
2018-08-12T12:35:47.414Z,38.90
2018-08-12T12:38:17.461Z,39.10
2018-08-12T12:40:47.500Z,40.30
2018-08-12T12:43:20.476Z,39.90
2018-08-12T12:45:50.504Z,39.20
2018-08-12T12:48:21.248Z,39.00
2018-08-12T12:50:53.660Z,38.70
2018-08-12T12:53:23.836Z,38.30
2018-08-12T12:55:53.951Z,38.80
2018-08-12T12:58:23.992Z,40.30
2018-08-12T13:00:53.748Z,40.90
2018-08-12T13:03:23.593Z,40.40
2018-08-12T13:05:54.212Z,40.40
2018-08-12T13:08:24.086Z,40.40
2018-08-12T13:10:54.203Z,40.30
2018-08-12T13:13:24.593Z,39.60
2018-08-12T13:15:54.591Z,40.40
2018-08-12T13:18:24.754Z,39.30
2018-08-12T13:20:55.128Z,38.80
2018-08-12T13:23:24.825Z,39.10
2018-08-12T13:25:54.626Z,40.10
2018-08-12T13:28:24.457Z,41.20
2018-08-12T13:30:54.235Z,42.20
2018-08-12T13:33:24.058Z,43.50
2018-08-12T13:35:54.227Z,43.90
2018-08-12T13:38:24.590Z,44.50
2018-08-12T13:40:54.983Z,44.50
2018-08-12T13:43:24.737Z,43.20
2018-08-12T13:45:54.765Z,43.30
2018-08-12T13:48:24.525Z,43.40
2018-08-12T13:50:54.618Z,43.70
2018-08-12T13:53:24.428Z,44.00
2018-08-12T13:55:54.698Z,44.10
2018-08-12T13:58:24.500Z,44.30
2018-08-12T14:00:54.295Z,43.70
2018-08-12T14:03:24.193Z,43.10
2018-08-12T14:05:54.003Z,42.40
2018-08-12T14:08:23.816Z,42.40
2018-08-12T14:10:53.572Z,42.60
2018-08-12T14:13:23.296Z,43.40
2018-08-12T14:15:53.093Z,43.20
2018-08-12T14:18:22.746Z,42.10
2018-08-12T14:20:52.925Z,41.80
2018-08-12T14:23:22.898Z,40.90
2018-08-12T14:25:52.809Z,41.00
2018-08-12T14:28:22.651Z,40.40
2018-08-12T14:30:53.036Z,40.30
2018-08-12T14:33:23.128Z,39.90
2018-08-12T14:35:52.861Z,39.40
2018-08-12T14:38:22.586Z,38.70
2018-08-12T14:40:52.630Z,38.50
2018-08-12T14:43:22.690Z,38.10
2018-08-12T14:45:52.876Z,37.50
2018-08-12T14:48:22.901Z,38.20
2018-08-12T14:50:52.572Z,38.70
2018-08-12T14:53:22.662Z,39.70
2018-08-12T14:55:52.746Z,41.30
2018-08-12T14:58:22.467Z,42.50
2018-08-12T15:00:52.513Z,43.90
2018-08-12T15:03:22.291Z,45.30
2018-08-12T15:05:52.412Z,45.40
2018-08-12T15:08:22.192Z,45.30
2018-08-12T15:10:52.367Z,45.00
2018-08-12T15:13:22.101Z,44.40
2018-08-12T15:15:51.862Z,44.20
2018-08-12T15:18:21.721Z,43.70
2018-08-12T15:20:52.087Z,42.70
2018-08-12T15:23:21.760Z,42.20
2018-08-12T15:25:51.503Z,42.20
2018-08-12T15:28:21.982Z,42.30
2018-08-12T15:30:51.753Z,42.80
2018-08-12T15:33:21.511Z,43.00
2018-08-12T15:35:51.245Z,42.60
2018-08-12T15:38:21.306Z,42.70
2018-08-12T15:40:51.027Z,43.20
2018-08-12T15:43:21.202Z,43.70
2018-08-12T15:45:51.230Z,43.40
2018-08-12T15:48:21.334Z,43.10
2018-08-12T15:50:51.115Z,42.80
2018-08-12T15:53:21.092Z,42.60
2018-08-12T15:55:50.845Z,42.60
2018-08-12T15:58:20.900Z,42.10
2018-08-12T16:00:50.697Z,41.50
2018-08-12T16:03:20.461Z,40.50
2018-08-12T16:05:50.437Z,40.20
2018-08-12T16:08:20.247Z,40.60
2018-08-12T16:10:49.994Z,40.80
2018-08-12T16:13:19.708Z,40.90
2018-08-12T16:15:49.458Z,40.70
2018-08-12T16:18:19.235Z,40.60
2018-08-12T16:20:49.416Z,40.60
2018-08-12T16:23:19.499Z,40.70
2018-08-12T16:25:49.650Z,40.50
2018-08-12T16:28:19.813Z,39.40
2018-08-12T16:30:49.991Z,37.40
2018-08-12T16:33:20.502Z,36.30
2018-08-12T16:35:50.754Z,35.80
2018-08-12T16:38:20.810Z,34.80
2018-08-12T16:40:51.657Z,34.40
2018-08-12T16:43:22.551Z,34.20
2018-08-12T16:45:52.659Z,34.00
2018-08-12T16:48:22.773Z,33.80
2018-08-12T16:50:53.058Z,33.20
2018-08-12T16:53:23.132Z,33.00
2018-08-12T16:55:53.557Z,33.00
2018-08-12T16:58:23.683Z,33.10
2018-08-12T17:00:54.066Z,33.00
2018-08-12T17:03:24.090Z,32.80
2018-08-12T17:05:54.144Z,32.40
2018-08-12T17:08:24.156Z,32.10
2018-08-12T17:10:54.208Z,32.10
2018-08-12T17:13:24.607Z,32.10
2018-08-12T17:15:56.910Z,31.90
2018-08-12T17:18:29.806Z,31.80
2018-08-12T17:21:00.166Z,31.60
2018-08-12T17:23:30.544Z,31.30
2018-08-12T17:26:02.457Z,31.10
2018-08-12T17:28:32.747Z,30.90
2018-08-12T17:31:02.797Z,30.70
2018-08-12T17:33:33.183Z,30.60
2018-08-12T17:36:03.265Z,30.50
2018-08-12T17:38:33.308Z,30.40
2018-08-12T17:41:03.579Z,30.30
2018-08-12T17:43:34.020Z,30.10
2018-08-12T17:46:04.057Z,30.10
2018-08-12T17:48:34.308Z,30.00
2018-08-12T17:51:04.374Z,29.90
2018-08-12T17:53:34.418Z,29.80
2018-08-12T17:56:04.879Z,29.60
2018-08-12T17:58:34.937Z,29.40
2018-08-12T18:01:04.977Z,29.30
2018-08-12T18:03:34.624Z,29.10
2018-08-12T18:06:04.791Z,28.90
2018-08-12T18:08:34.936Z,28.90
2018-08-12T18:11:05.346Z,28.70
2018-08-12T18:13:35.701Z,28.60
2018-08-12T18:16:05.821Z,28.50
2018-08-12T18:18:36.039Z,28.30
2018-08-12T18:21:05.527Z,28.10
2018-08-12T18:23:34.970Z,28.00
2018-08-12T18:26:04.443Z,27.70
2018-08-12T18:28:34.279Z,27.50
2018-08-12T18:31:03.736Z,27.20
2018-08-12T18:33:33.249Z,27.00
2018-08-12T18:36:02.698Z,26.90
2018-08-12T18:38:32.139Z,26.70
2018-08-12T18:41:01.940Z,26.60
2018-08-12T18:43:31.365Z,26.50
2018-08-12T18:46:00.791Z,26.30
2018-08-12T18:48:30.563Z,26.20
2018-08-12T18:51:00.045Z,25.90
2018-08-12T18:53:29.809Z,25.70
2018-08-12T18:55:59.266Z,25.60
2018-08-12T18:58:29.211Z,25.40
2018-08-12T19:00:58.645Z,25.30
2018-08-12T19:03:28.192Z,25.10
2018-08-12T19:05:57.959Z,25.00
2018-08-12T19:08:27.905Z,24.90
2018-08-12T19:10:58.028Z,24.80
2018-08-12T19:13:27.857Z,24.70
2018-08-12T19:15:58.000Z,24.60
2018-08-12T19:18:27.556Z,24.40
2018-08-12T19:20:57.007Z,24.30
2018-08-12T19:23:26.510Z,24.30
2018-08-12T19:25:55.946Z,24.10
2018-08-12T19:28:25.359Z,24.00
2018-08-12T19:30:54.884Z,23.80
2018-08-12T19:33:24.342Z,23.70
2018-08-12T19:35:53.752Z,23.50
2018-08-12T19:38:23.403Z,23.50
2018-08-12T19:40:52.880Z,23.40
2018-08-12T19:43:22.357Z,23.30
2018-08-12T19:45:52.136Z,23.30
2018-08-12T19:48:21.810Z,23.20
2018-08-12T19:50:51.275Z,23.10
2018-08-12T19:53:20.911Z,23.00
2018-08-12T19:55:50.593Z,23.00
2018-08-12T19:58:20.026Z,22.90
2018-08-12T20:00:49.811Z,22.90
2018-08-12T20:03:19.277Z,22.80
2018-08-12T20:05:48.806Z,22.70
2018-08-12T20:08:18.757Z,22.70
2018-08-12T20:10:48.282Z,22.70
2018-08-12T20:13:17.785Z,22.70
2018-08-12T20:15:47.607Z,22.70
2018-08-12T20:18:19.014Z,22.60
2018-08-12T20:20:48.932Z,22.60
2018-08-12T20:23:18.768Z,22.50
2018-08-12T20:25:48.216Z,22.30
2018-08-12T20:28:17.639Z,22.30
2018-08-12T20:30:47.194Z,22.30
2018-08-12T20:33:16.807Z,22.30
2018-08-12T20:35:46.944Z,22.20
2018-08-12T20:38:16.402Z,22.00
2018-08-12T20:40:46.239Z,21.90
2018-08-12T20:43:15.677Z,21.90
2018-08-12T20:45:45.129Z,21.80
2018-08-12T20:48:14.555Z,21.80
2018-08-12T20:50:44.358Z,21.70
2018-08-12T20:53:13.838Z,21.70
2018-08-12T20:55:43.300Z,21.60
2018-08-12T20:58:12.777Z,21.60
2018-08-12T21:00:42.639Z,21.40
2018-08-12T21:03:12.415Z,21.40
2018-08-12T21:05:42.101Z,21.50
2018-08-12T21:08:11.567Z,21.40
2018-08-12T21:10:40.965Z,21.40
2018-08-12T21:13:10.763Z,21.40
2018-08-12T21:15:40.177Z,21.40
2018-08-12T21:18:09.586Z,21.40
2018-08-12T21:20:39.216Z,21.40
2018-08-12T21:23:08.963Z,21.30
2018-08-12T21:25:38.372Z,21.30
2018-08-12T21:28:07.853Z,21.20
2018-08-12T21:30:37.277Z,21.20
2018-08-12T21:33:07.179Z,21.10
2018-08-12T21:35:36.633Z,21.10
2018-08-12T21:38:06.507Z,21.10
2018-08-12T21:40:36.285Z,21.00
2018-08-12T21:43:05.867Z,20.90
2018-08-12T21:45:35.356Z,20.90
2018-08-12T21:48:05.325Z,20.90
2018-08-12T21:50:35.164Z,20.80
2018-08-12T21:53:04.663Z,20.80
2018-08-12T21:55:34.572Z,20.80
2018-08-12T21:58:04.190Z,20.70
2018-08-12T22:00:33.741Z,20.60
2018-08-12T22:03:10.748Z,20.50
2018-08-12T22:05:40.581Z,20.50
2018-08-12T22:08:10.220Z,20.50
2018-08-12T22:10:40.084Z,20.40
2018-08-12T22:13:10.381Z,20.40
2018-08-12T22:15:39.891Z,20.40
2018-08-12T22:18:10.523Z,20.40
2018-08-12T22:20:40.009Z,20.30
2018-08-12T22:23:09.948Z,20.30
2018-08-12T22:25:39.478Z,20.20
2018-08-12T22:28:08.914Z,20.10
2018-08-12T22:30:38.791Z,20.00
2018-08-12T22:33:08.313Z,20.00
2018-08-12T22:35:37.806Z,19.90
2018-08-12T22:38:07.328Z,19.90
2018-08-12T22:40:36.848Z,19.90
2018-08-12T22:43:07.611Z,19.80
2018-08-12T22:45:37.394Z,19.80
2018-08-12T22:48:07.003Z,19.90
2018-08-12T22:50:36.477Z,19.90
2018-08-12T22:53:06.434Z,19.80
2018-08-12T22:55:36.203Z,19.80
2018-08-12T22:58:06.279Z,19.80
2018-08-12T23:00:36.091Z,19.80
2018-08-12T23:03:06.794Z,19.70
2018-08-12T23:05:36.179Z,19.70
2018-08-12T23:08:10.265Z,19.60
2018-08-12T23:10:40.724Z,19.50
2018-08-12T23:13:10.530Z,19.50
2018-08-12T23:16:26.188Z,19.50
2018-08-12T23:18:55.686Z,19.50
2018-08-12T23:21:25.164Z,19.50
2018-08-12T23:23:54.558Z,19.50
2018-08-12T23:26:24.672Z,19.50
2018-08-12T23:28:54.469Z,19.40
2018-08-12T23:31:24.275Z,19.40
2018-08-12T23:33:53.720Z,19.30
2018-08-12T23:36:23.153Z,19.40
2018-08-12T23:38:52.596Z,19.40
2018-08-12T23:41:22.077Z,19.40
2018-08-12T23:43:51.575Z,19.20
2018-08-12T23:46:20.969Z,19.00
2018-08-12T23:48:50.788Z,18.80
2018-08-12T23:51:20.250Z,18.70
2018-08-12T23:53:50.103Z,18.70
2018-08-12T23:56:19.623Z,18.70
2018-08-12T23:58:49.436Z,18.80
